This is the latest recevied weather packets stored in our database for station/object AF5AA. If no packets are shown the sender has not sent any weather packets the latest 10 day(s).
| Time | Temp. | Humidity | Pressure | Rain* | Wind** | Luminosity | Snow |
|---|---|---|---|---|---|---|---|
| 1777759474 | 23.33° C | 39% | 1018.2 hPa | 0 mm | - | 45 W/m² | - |
| 1777759171 | 23.33° C | 41% | 1018.2 hPa | 0 mm | - | 46 W/m² | - |
| 1777758869 | 23.89° C | 43% | 1018.3 hPa | 0 mm | - | 35 W/m² | - |
| 1777758565 | 23.89° C | 37% | 1018.2 hPa | 0 mm | - | 32 W/m² | - |
| 1777758262 | 24.44° C | 39% | 1018.3 hPa | 0 mm | - | 83 W/m² | - |
| 1777757959 | 23.89° C | 40% | 1018.2 hPa | 0 mm | - | 129 W/m² | - |
| 1777757656 | 23.89° C | 39% | 1018.4 hPa | 0 mm | - | 110 W/m² | - |
| 1777757355 | 23.89° C | 39% | 1018.3 hPa | 0 mm | - | 155 W/m² | - |
| 1777757054 | 23.33° C | 41% | 1018.4 hPa | 0 mm | - | 82 W/m² | - |
| 1777756750 | 23.89° C | 45% | 1018.4 hPa | 0 mm | - | 163 W/m² | - |
| 1777756446 | 23.33° C | 38% | 1018.4 hPa | 0 mm | - | 62 W/m² | - |
| 1777756143 | 22.78° C | 43% | 1018.4 hPa | 0 mm | - | 107 W/m² | - |
| 1777755840 | 22.78° C | 40% | 1018.3 hPa | 0 mm | - | 105 W/m² | - |
| 1777755537 | 23.89° C | 41% | 1018.6 hPa | 0 mm | - | 33 W/m² | - |
| 1777755233 | 23.89° C | 42% | 1018.3 hPa | 0 mm | - | 534 W/m² | - |
| 1777754930 | 23.89° C | 42% | 1018.5 hPa | 0 mm | - | 59 W/m² | - |
| 1777754628 | 23.33° C | 41% | 1018.8 hPa | 0 mm | - | 113 W/m² | - |
| 1777754325 | 23.89° C | 44% | 1018.6 hPa | 0 mm | - | 159 W/m² | - |
| 1777754023 | 23.89° C | 44% | 1018.9 hPa | 0 mm | - | 58 W/m² | - |
| 1777753718 | 22.78° C | 45% | 1018.9 hPa | 0 mm | - | 161 W/m² | - |
| 1777753416 | 22.22° C | 49% | 1019.2 hPa | 0 mm | - | 83 W/m² | - |
| 1777753113 | 23.33° C | 44% | 1019.1 hPa | 0 mm | - | 138 W/m² | - |
| 1777752809 | 23.89° C | 44% | 1019.1 hPa | 0 mm | - | 127 W/m² | - |
| 1777752506 | 23.89° C | 45% | 1019.2 hPa | 0 mm | - | 102 W/m² | - |
| 1777752201 | 23.89° C | 40% | 1019.1 hPa | 0 mm | - | 98 W/m² | - |
* Rain latest hour (hover to see other rain measurements)
** Current wind speed in m/s (hover to see current wind gust speed)